createdAt,value
2022-12-06T00:02:46.089Z,11.95
2022-12-06T00:07:50.168Z,12.00
2022-12-06T00:12:53.143Z,10.27
2022-12-06T00:17:57.319Z,15.27
2022-12-06T00:23:00.077Z,11.52
2022-12-06T00:28:02.797Z,13.25
2022-12-06T00:33:07.022Z,13.48
2022-12-06T00:38:09.725Z,11.98
2022-12-06T00:43:15.170Z,13.00
2022-12-06T00:48:19.207Z,12.48
2022-12-06T00:53:23.843Z,10.13
2022-12-06T00:58:26.581Z,12.68
2022-12-06T01:03:35.112Z,11.52
2022-12-06T01:08:39.761Z,10.75
2022-12-06T01:13:42.430Z,9.35
2022-12-06T01:18:47.053Z,12.90
2022-12-06T01:23:53.432Z,11.75
2022-12-06T01:28:56.397Z,10.80
2022-12-06T01:34:00.346Z,11.45
2022-12-06T01:39:10.296Z,11.50
2022-12-06T01:44:39.273Z,10.40
2022-12-06T01:49:53.369Z,9.93
2022-12-06T01:55:00.332Z,8.23
2022-12-06T02:00:03.288Z,10.23
2022-12-06T02:05:11.130Z,10.32
2022-12-06T02:10:14.498Z,10.60
2022-12-06T02:15:17.330Z,10.00
2022-12-06T02:20:30.033Z,9.88
2022-12-06T02:25:51.845Z,10.02
2022-12-06T02:31:00.579Z,10.25
2022-12-06T02:36:07.896Z,9.60
2022-12-06T02:41:17.189Z,10.10
2022-12-06T02:46:23.892Z,8.73
2022-12-06T02:51:28.649Z,10.25
2022-12-06T02:56:33.293Z,9.55
2022-12-06T03:01:42.672Z,9.32
2022-12-06T03:07:11.288Z,10.23
2022-12-06T03:12:23.978Z,9.73
2022-12-06T03:17:37.229Z,9.05
2022-12-06T03:22:43.043Z,9.43
2022-12-06T03:27:48.413Z,9.32
2022-12-06T03:32:54.471Z,10.00
2022-12-06T03:38:01.382Z,10.48
2022-12-06T03:43:04.796Z,10.38
2022-12-06T03:48:13.711Z,10.60
2022-12-06T03:53:17.779Z,10.75
2022-12-06T03:58:20.493Z,9.93
2022-12-06T04:03:24.547Z,10.27
2022-12-06T04:08:27.212Z,8.55
2022-12-06T04:13:32.077Z,10.45
2022-12-06T04:18:36.219Z,8.35
2022-12-06T04:23:40.480Z,7.60
2022-12-06T04:29:01.111Z,8.30
2022-12-06T04:34:23.203Z,8.95
2022-12-06T04:39:26.563Z,9.10
2022-12-06T04:44:29.142Z,9.25
2022-12-06T04:49:33.703Z,9.77
2022-12-06T04:59:41.082Z,10.00
2022-12-06T05:04:47.273Z,7.63
2022-12-06T05:09:49.894Z,9.88
2022-12-06T05:14:52.518Z,9.85
2022-12-06T05:19:57.841Z,9.82
2022-12-06T05:25:01.167Z,9.25
2022-12-06T05:30:04.682Z,9.30
2022-12-06T05:35:09.845Z,8.85
2022-12-06T05:40:13.156Z,9.23
2022-12-06T05:45:15.892Z,8.93
2022-12-06T05:50:20.935Z,9.00
2022-12-06T05:55:23.761Z,8.75
2022-12-06T06:00:29.218Z,9.25
2022-12-06T06:05:33.355Z,9.13
2022-12-06T06:10:35.989Z,7.10
2022-12-06T06:15:38.788Z,9.45
2022-12-06T06:20:42.748Z,9.63
2022-12-06T06:25:45.479Z,8.90
2022-12-06T06:30:48.413Z,9.80
2022-12-06T06:35:52.375Z,9.75
2022-12-06T06:40:54.964Z,7.05
2022-12-06T06:46:01.526Z,9.30
2022-12-06T06:51:07.021Z,9.30
2022-12-06T06:56:10.326Z,9.38
2022-12-06T07:01:18.690Z,10.52
2022-12-06T07:06:23.135Z,9.77
2022-12-06T07:11:25.760Z,8.02
2022-12-06T07:16:28.410Z,8.55
2022-12-06T07:21:32.347Z,8.18
2022-12-06T07:26:34.917Z,7.05
2022-12-06T07:31:37.595Z,8.75
2022-12-06T07:36:41.635Z,8.80
2022-12-06T07:42:01.893Z,7.65
2022-12-06T07:47:04.732Z,7.72
2022-12-06T07:52:08.709Z,8.35
2022-12-06T07:57:11.316Z,6.05
2022-12-06T08:02:19.502Z,7.93
2022-12-06T08:07:26.881Z,8.40
2022-12-06T08:12:31.626Z,9.68
2022-12-06T08:17:34.241Z,9.27
2022-12-06T08:22:38.229Z,9.68
2022-12-06T08:27:42.859Z,7.30
2022-12-06T08:37:49.648Z,10.30
2022-12-06T08:42:54.551Z,7.97
2022-12-06T08:47:57.228Z,10.40
2022-12-06T08:53:01.324Z,10.05
2022-12-06T08:58:04.127Z,7.53
2022-12-06T09:03:06.808Z,9.60
2022-12-06T09:08:11.022Z,9.60
2022-12-06T09:13:13.781Z,7.05
2022-12-06T09:18:18.123Z,8.85
2022-12-06T09:23:22.169Z,7.07
2022-12-06T09:28:24.861Z,7.10
2022-12-06T09:33:32.311Z,8.77
2022-12-06T09:38:41.868Z,8.52
2022-12-06T09:43:58.094Z,9.63
2022-12-06T09:49:21.030Z,9.70
2022-12-06T09:54:40.568Z,9.00
2022-12-06T09:59:52.874Z,9.38
2022-12-06T10:05:27.314Z,9.13
2022-12-06T10:10:43.327Z,7.32
2022-12-06T10:16:04.983Z,8.40
2022-12-06T10:21:20.899Z,8.48
2022-12-06T10:26:36.250Z,8.75
2022-12-06T10:31:53.781Z,9.10
2022-12-06T10:37:05.073Z,8.93
2022-12-06T10:42:16.147Z,8.05
2022-12-06T10:47:27.854Z,8.90
2022-12-06T10:52:41.280Z,7.85
2022-12-06T10:57:51.021Z,9.43
2022-12-06T11:03:05.581Z,8.30
2022-12-06T11:08:16.342Z,6.78
2022-12-06T11:13:23.179Z,8.07
2022-12-06T11:18:29.784Z,7.40
2022-12-06T11:23:39.382Z,7.60
2022-12-06T11:28:55.424Z,7.13
2022-12-06T11:33:59.779Z,7.20
2022-12-06T11:39:02.979Z,5.75
2022-12-06T11:44:07.441Z,6.93
2022-12-06T11:49:20.948Z,6.90
2022-12-06T11:54:27.394Z,7.05
2022-12-06T11:59:42.689Z,6.22
2022-12-06T12:04:45.870Z,6.03
2022-12-06T12:09:52.831Z,7.10
2022-12-06T12:14:59.377Z,6.30
2022-12-06T12:20:06.450Z,6.35
2022-12-06T12:25:24.714Z,6.07
2022-12-06T12:30:33.121Z,5.70
2022-12-06T12:35:37.581Z,6.07
2022-12-06T12:40:42.791Z,5.95
2022-12-06T12:46:06.207Z,5.85
2022-12-06T12:51:27.944Z,6.28
2022-12-06T12:56:36.944Z,5.38
2022-12-06T13:01:46.831Z,5.20
2022-12-06T13:06:53.513Z,5.45
2022-12-06T13:11:59.308Z,5.20
2022-12-06T13:17:08.772Z,5.40
2022-12-06T13:22:17.586Z,5.55
2022-12-06T13:27:23.196Z,5.18
2022-12-06T13:32:34.107Z,5.47
2022-12-06T13:37:43.292Z,4.97
2022-12-06T13:42:46.939Z,5.20
2022-12-06T13:47:54.592Z,5.70
2022-12-06T13:53:03.501Z,5.10
2022-12-06T13:58:42.134Z,5.82
2022-12-06T14:03:57.014Z,5.30
2022-12-06T14:09:00.542Z,5.60
2022-12-06T14:14:10.500Z,5.65
2022-12-06T14:19:18.849Z,17.88
2022-12-06T14:24:30.689Z,5.90
2022-12-06T14:29:34.500Z,10.25
2022-12-06T14:34:38.983Z,9.05
2022-12-06T14:44:49.125Z,20.63
2022-12-06T14:50:13.267Z,7.32
2022-12-06T14:55:20.389Z,5.97
2022-12-06T15:00:27.759Z,5.68
2022-12-06T15:05:34.312Z,5.72
2022-12-06T15:10:39.576Z,5.13
2022-12-06T15:15:43.919Z,5.38
2022-12-06T15:20:48.903Z,3.72
2022-12-06T15:25:51.497Z,4.53
2022-12-06T15:30:54.560Z,4.57
2022-12-06T15:35:59.344Z,4.30
2022-12-06T15:41:02.208Z,4.32
2022-12-06T15:46:05.872Z,4.57
2022-12-06T15:51:20.167Z,3.60
2022-12-06T16:01:41.992Z,5.22
2022-12-06T16:06:52.180Z,4.95
2022-12-06T16:11:54.880Z,3.72
2022-12-06T16:16:57.441Z,4.07
2022-12-06T16:22:02.577Z,3.67
2022-12-06T16:27:05.418Z,3.42
2022-12-06T16:32:10.864Z,3.50
2022-12-06T16:37:14.858Z,3.88
2022-12-06T16:42:17.430Z,2.83
2022-12-06T16:52:22.838Z,3.53
2022-12-06T16:57:25.394Z,2.60
2022-12-06T17:02:30.429Z,3.22
2022-12-06T17:07:34.754Z,3.30
2022-12-06T17:12:37.360Z,2.72
2022-12-06T17:17:40.980Z,3.92
2022-12-06T17:22:44.983Z,3.87
2022-12-06T17:27:47.730Z,4.38
2022-12-06T17:32:50.636Z,17.92
2022-12-06T17:37:54.597Z,36.35
2022-12-06T17:43:03.912Z,37.20
2022-12-06T17:48:06.936Z,6.00
2022-12-06T17:53:10.820Z,5.85
2022-12-06T17:58:13.390Z,3.03
2022-12-06T18:03:16.021Z,4.65
2022-12-06T18:08:20.161Z,5.07
2022-12-06T18:13:22.789Z,3.80
2022-12-06T18:18:25.367Z,5.30
2022-12-06T18:23:29.351Z,4.72
2022-12-06T18:28:32.265Z,3.20
2022-12-06T18:33:35.518Z,4.80
2022-12-06T18:38:39.584Z,5.63
2022-12-06T18:43:42.665Z,3.90
2022-12-06T18:48:47.778Z,4.47
2022-12-06T18:53:52.862Z,4.80
2022-12-06T18:58:55.431Z,4.65
2022-12-06T19:04:00.709Z,4.82
2022-12-06T19:09:09.372Z,6.15
2022-12-06T19:14:12.110Z,4.72
2022-12-06T19:19:19.468Z,4.68
2022-12-06T19:24:25.597Z,4.32
2022-12-06T19:29:29.646Z,4.00
2022-12-06T19:34:32.277Z,3.42
2022-12-06T19:39:36.242Z,4.00
2022-12-06T19:44:39.172Z,3.42
2022-12-06T19:49:44.580Z,4.28
2022-12-06T19:54:48.582Z,4.55
2022-12-06T19:59:53.800Z,3.42
2022-12-06T20:04:56.385Z,4.90
2022-12-06T20:10:00.730Z,5.00
2022-12-06T20:20:09.440Z,3.90
2022-12-06T20:25:13.348Z,4.03
2022-12-06T20:30:16.246Z,4.13
2022-12-06T20:35:18.958Z,4.55
2022-12-06T20:40:28.318Z,5.25
2022-12-06T20:45:33.829Z,5.30
2022-12-06T20:50:39.575Z,5.28
2022-12-06T20:55:43.486Z,4.82
2022-12-06T21:00:46.195Z,3.88
2022-12-06T21:05:55.010Z,5.55
2022-12-06T21:11:22.283Z,5.32
2022-12-06T21:16:24.699Z,4.05
2022-12-06T21:21:29.574Z,5.45
2022-12-06T21:26:36.796Z,5.90
2022-12-06T21:31:39.491Z,6.05
2022-12-06T21:36:42.631Z,5.50
2022-12-06T21:41:46.664Z,5.53
2022-12-06T21:46:52.359Z,4.57
2022-12-06T21:52:02.220Z,5.97
2022-12-06T21:57:11.479Z,7.18
2022-12-06T22:02:14.354Z,5.30
2022-12-06T22:07:17.006Z,7.25
2022-12-06T22:12:20.955Z,6.95
2022-12-06T22:17:23.631Z,8.70
2022-12-06T22:22:26.207Z,7.60
2022-12-06T22:27:30.149Z,8.38
2022-12-06T22:32:34.431Z,6.35
2022-12-06T22:37:37.047Z,6.05
2022-12-06T22:42:40.943Z,8.70
2022-12-06T22:47:43.558Z,8.27
2022-12-06T22:52:46.138Z,7.85
2022-12-06T22:57:50.159Z,8.40
2022-12-06T23:02:53.047Z,5.93
2022-12-06T23:07:56.924Z,7.97
2022-12-06T23:13:00.931Z,6.45
2022-12-06T23:18:03.502Z,8.05
2022-12-06T23:23:07.148Z,8.63
2022-12-06T23:28:11.142Z,6.53
2022-12-06T23:33:17.052Z,7.00
2022-12-06T23:38:23.721Z,8.20
2022-12-06T23:43:27.645Z,9.27
2022-12-06T23:48:31.326Z,6.68
2022-12-06T23:53:34.804Z,6.90
2022-12-06T23:58:39.223Z,7.63
